CST,Max TemperatureF,Mean TemperatureF,Min TemperatureF,Max Dew PointF,MeanDew PointF,Min DewpointF,Max Humidity, Mean Humidity, Min Humidity, Max Sea Level PressureIn, Mean Sea Level PressureIn, Min Sea Level PressureIn, Max VisibilityMiles, Mean VisibilityMiles, Min VisibilityMiles, Max Wind SpeedMPH, Mean Wind SpeedMPH, Max Gust SpeedMPH,PrecipitationIn, CloudCover, Events, WindDirDegrees
2013-1-1,15,-2,-20,10,-6,-26,85,71,53,30.27,30.20,30.11,10,10,10,9,1,,0.00,3,,250
2013-1-2,23,14,5,14,10,1,92,74,59,30.11,30.05,29.98,10,10,10,8,2,,0.00,5,,203
2013-1-3,23,13,1,19,13,0,93,83,68,30.23,30.16,30.05,10,8,4,10,5,,0.00,4,Snow,260
2013-1-4,32,16,1,18,11,-2,100,77,55,30.17,30.11,30.06,10,10,10,12,3,18,0.00,0,,241
2013-1-5,35,18,1,27,14,-4,92,81,64,30.18,29.99,29.87,10,10,10,14,3,18,0.00,1,,243
2013-1-6,26,14,3,19,13,0,100,80,59,30.24,30.14,29.93,10,10,10,13,6,17,0.00,3,,282
2013-1-7,37,20,3,27,18,0,100,76,52,30.19,30.03,29.95,10,10,7,16,5,23,0.00,0,,213
2013-1-8,39,22,5,30,20,3,100,83,65,30.03,29.95,29.85,10,10,10,15,3,21,0.00,1,,186
2013-1-9,37,26,15,28,23,14,100,76,52,30.43,30.20,29.92,10,10,10,16,8,25,0.00,1,,249
2013-1-10,39,24,10,36,20,9,100,77,42,30.44,30.20,29.81,10,9,3,14,3,,0.05,3,Rain,107
2013-1-11,44,38,33,43,38,34,100,98,87,29.79,29.62,29.49,10,4,0,14,3,21,0.00,7,Fog,168
2013-1-12,48,32,15,41,20,7,87,71,63,30.03,29.83,29.48,10,10,10,17,11,31,0.00,5,Snow,252
2013-1-13,15,12,6,9,4,3,85,71,62,30.24,30.08,29.98,10,10,5,14,7,20,0.00,5,Snow,282
2013-1-14,23,12,0,12,4,-6,92,78,58,30.41,30.36,30.24,10,10,10,15,2,23,0.00,2,,255
2013-1-15,32,15,-2,16,7,-6,93,68,44,30.38,30.22,29.99,10,10,10,13,2,18,0.00,0,,207
2013-1-16,35,28,21,30,20,5,93,73,50,30.14,29.87,29.73,10,9,2,13,7,20,0.00,4,Snow,254
2013-1-17,23,14,5,10,3,-4,92,58,41,30.39,30.31,30.15,10,10,10,12,6,16,0.00,2,,285
2013-1-18,44,27,10,32,24,7,92,73,53,30.36,29.97,29.77,10,10,5,14,5,23,0.00,1,Snow,201
2013-1-19,46,27,8,32,22,-4,100,73,41,30.09,29.80,29.65,10,10,10,30,7,45,0.00,2,,273
2013-1-20,14,10,5,0,-4,-8,78,57,38,30.34,30.25,30.10,10,10,10,17,11,25,0.00,2,,288
2013-1-21,5,0,-5,1,-11,-15,85,64,47,30.29,30.23,30.16,10,10,4,17,9,23,0.00,2,Snow,288
2013-1-22,6,-4,-14,-2,-11,-18,85,69,48,30.37,30.31,30.26,10,10,10,10,2,,0.00,0,,277
2013-1-23,19,10,0,12,2,-13,85,70,52,30.51,30.23,30.08,10,7,2,23,4,30,0.00,5,Snow,303
2013-1-24,14,4,-7,3,-6,-13,84,63,48,30.66,30.52,30.28,10,10,10,8,3,,0.00,0,,116
2013-1-25,23,16,10,16,10,3,93,72,62,30.25,30.07,29.93,10,8,2,14,6,24,0.00,5,Snow,263
2013-1-26,26,10,-5,12,3,-9,92,65,43,30.39,30.30,30.24,10,10,10,10,3,,0.00,0,,147
2013-1-27,32,29,26,32,23,12,100,79,55,30.25,30.04,29.81,10,6,1,12,6,,0.15,5,Snow,134
2013-1-28,33,32,32,32,32,32,100,99,93,29.94,29.86,29.68,10,6,1,8,1,,0.00,8,,104
2013-1-29,46,39,32,46,35,30,100,97,87,29.70,29.57,29.50,10,6,0,9,4,,0.09,8,Fog-Rain-Snow-Thunderstorm,314
2013-1-30,32,23,14,30,20,7,100,87,73,29.66,29.53,29.46,10,5,0,20,11,28,0.15,7,Snow,320
2013-1-31,14,7,0,9,0,-8,85,72,62,30.18,29.90,29.66,10,8,1,16,10,24,0.00,4,Snow,291